Time;durP1;ratioP1;P1;durP2;ratioP2;P2;SDS_P1;SDS_P2;PMS_P1;PMS_P2;Temp;Humidity;BMP_temperature;BMP_pressure;BME280_temperature;BME280_humidity;BME280_pressure;Samples;Min_cycle;Max_cycle;Signal;HPM_P1;HPM_P2
2022/11/24 00:00:24;;;;;;;;;;;10.80;74.80;;;;;;5062406;28;19920;-80
2022/11/24 00:02:50;;;;;;;;;;;10.70;74.70;;;;;;5034812;28;19921;-81
2022/11/24 00:05:15;;;;;;;;;;;10.80;74.80;;;;;;5036479;28;19981;-81
2022/11/24 00:07:41;;;;;;;;;;;10.80;74.80;;;;;;5057207;28;20288;-80
2022/11/24 00:10:07;;;;;;;;;;;10.80;74.80;;;;;;5048409;28;19921;-79
2022/11/24 00:12:32;;;;;;;;;;;10.80;74.80;;;;;;5054019;28;19921;-80
2022/11/24 00:14:58;;;;;;;;;;;10.80;74.80;;;;;;5062777;28;19925;-79
2022/11/24 00:17:24;;;;;;;;;;;10.70;74.80;;;;;;5049611;28;20365;-80
2022/11/24 00:19:49;;;;;;;;;;;10.70;74.80;;;;;;5032208;28;19917;-81
2022/11/24 00:22:15;;;;;;;;;;;10.80;74.80;;;;;;5051967;28;19917;-80
2022/11/24 00:24:40;;;;;;;;;;;10.70;74.80;;;;;;5052914;28;19912;-80
2022/11/24 00:27:06;;;;;;;;;;;10.70;74.80;;;;;;5035142;28;19974;-79
2022/11/24 00:29:32;;;;;;;;;;;10.70;74.80;;;;;;5059658;28;19917;-80
2022/11/24 00:31:57;;;;;;;;;;;10.70;74.80;;;;;;5064764;28;19932;-80
2022/11/24 00:34:23;;;;;;;;;;;10.70;74.80;;;;;;5079123;28;20322;-79
2022/11/24 00:36:49;;;;;;;;;;;10.70;74.80;;;;;;5066738;28;19916;-81
2022/11/24 00:39:14;;;;;;;;;;;10.70;74.80;;;;;;5073311;28;20355;-80
2022/11/24 00:41:41;;;;;;;;;;;10.70;74.80;;;;;;5089643;28;20261;-81
2022/11/24 00:44:06;;;;;;;;;;;10.70;74.80;;;;;;5095177;28;20002;-81
2022/11/24 00:46:32;;;;;;;;;;;10.70;74.80;;;;;;5059041;28;20490;-79
2022/11/24 00:48:59;;;;;;;;;;;10.70;74.80;;;;;;5094580;28;19923;-80
2022/11/24 00:51:26;;;;;;;;;;;10.70;74.80;;;;;;5054790;28;19916;-80
2022/11/24 00:53:52;;;;;;;;;;;10.70;74.80;;;;;;5058899;28;19912;-79
2022/11/24 00:56:18;;;;;;;;;;;10.70;74.80;;;;;;5066381;28;20456;-80
2022/11/24 00:58:43;;;;;;;;;;;10.70;74.80;;;;;;5063615;28;20383;-79
2022/11/24 01:01:10;;;;;;;;;;;10.70;74.80;;;;;;5064215;28;19966;-80
2022/11/24 01:03:36;;;;;;;;;;;10.70;74.80;;;;;;5065910;28;19912;-79
2022/11/24 01:06:12;;;;;;;;;;;10.70;74.80;;;;;;5063145;28;19908;-80
2022/11/24 01:08:38;;;;;;;;;;;10.70;74.80;;;;;;5078588;28;19951;-80
2022/11/24 01:11:07;;;;;;;;;;;10.70;74.80;;;;;;5074845;28;19925;-81
2022/11/24 01:13:32;;;;;;;;;;;10.70;74.90;;;;;;5082988;28;19912;-81
2022/11/24 01:15:58;;;;;;;;;;;10.70;74.80;;;;;;5084454;28;19916;-79
2022/11/24 01:18:23;;;;;;;;;;;10.70;74.80;;;;;;5087597;28;19919;-80
2022/11/24 01:20:49;;;;;;;;;;;10.70;74.80;;;;;;5072331;28;19924;-82
2022/11/24 01:23:14;;;;;;;;;;;10.70;74.80;;;;;;5081382;28;20011;-81
2022/11/24 01:25:40;;;;;;;;;;;10.70;74.80;;;;;;5059595;28;19916;-82
2022/11/24 01:28:06;;;;;;;;;;;10.70;74.80;;;;;;5077339;28;19923;-80
2022/11/24 01:30:31;;;;;;;;;;;10.70;74.80;;;;;;5098775;28;19981;-79
2022/11/24 01:32:57;;;;;;;;;;;10.70;74.90;;;;;;5077368;28;20428;-80
2022/11/24 01:35:23;;;;;;;;;;;10.70;74.80;;;;;;5065444;28;19964;-81
2022/11/24 01:37:48;;;;;;;;;;;10.70;74.80;;;;;;5060618;28;19921;-80
2022/11/24 01:40:14;;;;;;;;;;;10.70;74.80;;;;;;5061828;28;19997;-80
2022/11/24 01:42:47;;;;;;;;;;;10.70;74.80;;;;;;5074392;28;19919;-80
2022/11/24 01:45:28;;;;;;;;;;;10.70;74.90;;;;;;5076693;28;19912;-81
2022/11/24 01:47:54;;;;;;;;;;;10.70;74.90;;;;;;5075066;28;20365;-80
2022/11/24 01:50:20;;;;;;;;;;;10.70;74.80;;;;;;5055155;28;19927;-83
2022/11/24 01:52:48;;;;;;;;;;;10.70;74.90;;;;;;5065012;28;19959;-81
2022/11/24 01:55:19;;;;;;;;;;;10.60;74.80;;;;;;5063816;28;19938;-80
2022/11/24 01:57:48;;;;;;;;;;;10.70;74.90;;;;;;5092737;28;19916;-81
2022/11/24 02:00:14;;;;;;;;;;;10.60;74.80;;;;;;5079730;28;19920;-81
2022/11/24 02:02:41;;;;;;;;;;;10.60;74.80;;;;;;5090783;28;19916;-80
2022/11/24 02:05:13;;;;;;;;;;;10.60;74.90;;;;;;5078770;28;19912;-80
2022/11/24 02:07:38;;;;;;;;;;;10.60;74.80;;;;;;5076380;28;19923;-81
2022/11/24 02:10:09;;;;;;;;;;;10.60;74.80;;;;;;5076962;28;20342;-80
2022/11/24 02:12:35;;;;;;;;;;;10.70;74.90;;;;;;5070221;28;20364;-80
2022/11/24 02:15:01;;;;;;;;;;;10.70;74.80;;;;;;5073430;28;19912;-80
2022/11/24 02:17:26;;;;;;;;;;;10.70;74.90;;;;;;5086857;28;20258;-82
2022/11/24 02:19:55;;;;;;;;;;;10.60;74.80;;;;;;5065922;28;20348;-80
2022/11/24 02:22:24;;;;;;;;;;;10.60;74.80;;;;;;5076960;28;19919;-83
2022/11/24 02:24:53;;;;;;;;;;;10.70;74.90;;;;;;5085260;28;20603;-80
2022/11/24 02:27:19;;;;;;;;;;;10.70;74.90;;;;;;5057052;28;19920;-80
2022/11/24 02:29:44;;;;;;;;;;;10.60;74.80;;;;;;5066544;28;19916;-80
2022/11/24 02:32:10;;;;;;;;;;;10.60;74.80;;;;;;5074932;28;19912;-80
2022/11/24 02:34:36;;;;;;;;;;;10.70;74.90;;;;;;5082733;28;20422;-80
2022/11/24 02:37:02;;;;;;;;;;;10.70;74.80;;;;;;5059230;28;20007;-81
2022/11/24 02:39:27;;;;;;;;;;;10.60;75.40;;;;;;5068284;28;19947;-81
2022/11/24 02:41:59;;;;;;;;;;;10.60;74.80;;;;;;5060313;28;19916;-80
2022/11/24 02:44:27;;;;;;;;;;;10.60;74.80;;;;;;5076771;28;20486;-80
2022/11/24 02:47:09;;;;;;;;;;;10.60;74.80;;;;;;5071452;28;19919;-82
2022/11/24 02:49:35;;;;;;;;;;;10.60;74.80;;;;;;5077393;28;19916;-80
2022/11/24 02:52:01;;;;;;;;;;;10.60;74.80;;;;;;5063332;28;19913;-80
2022/11/24 02:54:27;;;;;;;;;;;10.60;74.80;;;;;;5077390;28;19922;-80
2022/11/24 02:56:52;;;;;;;;;;;10.60;74.80;;;;;;5076677;28;20522;-81
2022/11/24 02:59:18;;;;;;;;;;;10.60;74.80;;;;;;5041060;28;19917;-80
2022/11/24 03:01:43;;;;;;;;;;;10.60;74.80;;;;;;5060484;28;20284;-81
2022/11/24 03:04:09;;;;;;;;;;;10.60;74.80;;;;;;5062770;28;19926;-81
2022/11/24 03:06:35;;;;;;;;;;;10.60;74.80;;;;;;5055722;28;20277;-81
2022/11/24 03:09:00;;;;;;;;;;;10.60;74.80;;;;;;5060878;28;19994;-81
2022/11/24 03:11:26;;;;;;;;;;;10.60;74.80;;;;;;5064889;28;19927;-80
2022/11/24 03:13:51;;;;;;;;;;;10.60;74.80;;;;;;5072566;28;20489;-80
2022/11/24 03:16:17;;;;;;;;;;;10.60;74.80;;;;;;5092003;28;20295;-82
2022/11/24 03:18:42;;;;;;;;;;;10.60;74.80;;;;;;5073721;28;19916;-80
2022/11/24 03:21:08;;;;;;;;;;;10.60;74.90;;;;;;5056313;28;20288;-82
2022/11/24 03:23:34;;;;;;;;;;;10.60;74.80;;;;;;5067088;28;19965;-82
2022/11/24 03:26:10;;;;;;;;;;;10.60;74.90;;;;;;5069187;28;19927;-79
2022/11/24 03:28:35;;;;;;;;;;;10.50;74.80;;;;;;5078295;28;19923;-81
2022/11/24 03:31:01;;;;;;;;;;;10.60;74.90;;;;;;5083026;28;19920;-82
2022/11/24 03:33:27;;;;;;;;;;;10.60;74.90;;;;;;5064589;28;19925;-83
2022/11/24 03:35:53;;;;;;;;;;;10.60;74.90;;;;;;5039880;28;19917;-80
2022/11/24 03:38:18;;;;;;;;;;;10.60;74.90;;;;;;5053692;28;19913;-81
2022/11/24 03:40:44;;;;;;;;;;;10.60;74.90;;;;;;5054336;28;20336;-80
2022/11/24 03:43:09;;;;;;;;;;;10.60;74.90;;;;;;5033388;28;19921;-80
2022/11/24 03:45:35;;;;;;;;;;;10.60;74.90;;;;;;5059674;28;19917;-83
2022/11/24 03:48:00;;;;;;;;;;;10.60;74.90;;;;;;5046036;28;19917;-80
2022/11/24 03:50:26;;;;;;;;;;;10.60;74.90;;;;;;5057383;28;20286;-83
2022/11/24 03:52:52;;;;;;;;;;;10.50;74.80;;;;;;5052076;28;19979;-81
2022/11/24 03:55:17;;;;;;;;;;;10.60;74.90;;;;;;5043726;28;19923;-82
2022/11/24 03:57:43;;;;;;;;;;;10.50;74.80;;;;;;5053261;28;19916;-80
2022/11/24 04:00:10;;;;;;;;;;;10.60;74.90;;;;;;5054398;28;20334;-80
2022/11/24 04:02:36;;;;;;;;;;;10.50;74.90;;;;;;5051178;28;19952;-82
2022/11/24 04:05:02;;;;;;;;;;;10.50;74.80;;;;;;5053935;28;19959;-83
2022/11/24 04:07:28;;;;;;;;;;;10.50;74.80;;;;;;5036921;28;19958;-80
2022/11/24 04:09:53;;;;;;;;;;;10.50;74.80;;;;;;5050010;28;19967;-81
2022/11/24 04:15:03;;;;;;;;;;;10.50;74.80;;;;;;5054944;28;19923;-79
2022/11/24 04:17:29;;;;;;;;;;;10.50;74.80;;;;;;5043898;28;19916;-79
2022/11/24 04:19:54;;;;;;;;;;;10.50;74.90;;;;;;5037421;28;19921;-80
2022/11/24 04:22:20;;;;;;;;;;;10.50;74.80;;;;;;5038163;28;19939;-79
2022/11/24 04:24:46;;;;;;;;;;;10.50;74.90;;;;;;5048273;28;21565;-82
2022/11/24 04:27:11;;;;;;;;;;;10.50;74.80;;;;;;5016989;28;20379;-79
2022/11/24 04:29:37;;;;;;;;;;;10.50;74.90;;;;;;5043472;28;19965;-79
2022/11/24 04:32:02;;;;;;;;;;;10.50;74.80;;;;;;5049066;28;19946;-79
2022/11/24 04:34:28;;;;;;;;;;;10.50;74.90;;;;;;5053390;28;19948;-81
2022/11/24 04:36:54;;;;;;;;;;;10.50;74.80;;;;;;5044466;28;20003;-80
2022/11/24 04:39:19;;;;;;;;;;;10.60;74.90;;;;;;5038367;28;19928;-81
2022/11/24 04:41:45;;;;;;;;;;;10.50;74.80;;;;;;5035331;28;20017;-80
2022/11/24 04:44:11;;;;;;;;;;;10.50;74.90;;;;;;5035040;28;19917;-80
2022/11/24 04:46:36;;;;;;;;;;;10.50;74.80;;;;;;5053216;28;19917;-81
2022/11/24 04:49:02;;;;;;;;;;;10.50;74.90;;;;;;5052019;28;19924;-80
2022/11/24 04:51:29;;;;;;;;;;;10.50;74.90;;;;;;5051760;28;20055;-79
2022/11/24 04:53:54;;;;;;;;;;;10.50;74.90;;;;;;5051160;28;19909;-80
2022/11/24 04:56:20;;;;;;;;;;;10.50;74.90;;;;;;5035858;28;19916;-79
2022/11/24 04:58:49;;;;;;;;;;;10.50;74.90;;;;;;5038038;28;19923;-79
2022/11/24 05:01:14;;;;;;;;;;;10.50;74.90;;;;;;5061107;28;19916;-79
2022/11/24 05:03:40;;;;;;;;;;;10.50;74.80;;;;;;5031983;28;19917;-79
2022/11/24 05:06:07;;;;;;;;;;;10.50;74.90;;;;;;5047860;28;19924;-82
2022/11/24 05:08:33;;;;;;;;;;;10.50;74.90;;;;;;5049574;28;19925;-80
2022/11/24 05:11:03;;;;;;;;;;;10.50;74.90;;;;;;5054144;28;20451;-80
2022/11/24 05:13:28;;;;;;;;;;;10.50;74.90;;;;;;5050689;28;19954;-81
2022/11/24 05:15:55;;;;;;;;;;;10.50;74.90;;;;;;5047716;28;19956;-85
2022/11/24 05:18:21;;;;;;;;;;;10.50;74.90;;;;;;5049010;28;19916;-80
2022/11/24 05:20:47;;;;;;;;;;;10.50;74.90;;;;;;5060788;28;19948;-79
2022/11/24 05:23:13;;;;;;;;;;;10.50;74.90;;;;;;5053949;28;19997;-80
2022/11/24 05:25:39;;;;;;;;;;;10.50;74.90;;;;;;5055785;28;20023;-79
2022/11/24 05:28:07;;;;;;;;;;;10.50;74.90;;;;;;5039120;28;19928;-82
2022/11/24 05:30:34;;;;;;;;;;;10.50;74.90;;;;;;5053861;28;19943;-80
2022/11/24 05:33:04;;;;;;;;;;;10.50;74.90;;;;;;5037267;28;20038;-79
2022/11/24 05:35:30;;;;;;;;;;;10.50;74.90;;;;;;5060027;28;19913;-79
2022/11/24 05:37:56;;;;;;;;;;;10.50;74.90;;;;;;5049562;28;20274;-79
2022/11/24 05:40:22;;;;;;;;;;;10.50;74.90;;;;;;5052746;28;19916;-79
2022/11/24 05:42:48;;;;;;;;;;;10.50;74.90;;;;;;5066951;28;19924;-81
2022/11/24 05:45:15;;;;;;;;;;;10.50;74.90;;;;;;5061384;28;19925;-79
2022/11/24 05:47:41;;;;;;;;;;;10.50;74.90;;;;;;5054329;28;19956;-79
2022/11/24 05:50:07;;;;;;;;;;;10.50;74.90;;;;;;5063227;28;19948;-79
2022/11/24 05:52:33;;;;;;;;;;;10.50;74.90;;;;;;5066647;28;20348;-80
2022/11/24 05:54:59;;;;;;;;;;;10.50;74.90;;;;;;5077850;28;19948;-81
2022/11/24 05:57:24;;;;;;;;;;;10.50;74.90;;;;;;5072007;28;19940;-81
2022/11/24 05:59:50;;;;;;;;;;;10.50;74.90;;;;;;5047513;28;19932;-81
2022/11/24 06:02:16;;;;;;;;;;;10.50;74.90;;;;;;5070374;28;19916;-81
2022/11/24 06:04:41;;;;;;;;;;;10.50;75.00;;;;;;5075566;28;19916;-80
2022/11/24 06:07:08;;;;;;;;;;;10.50;74.90;;;;;;5072862;28;19986;-83
2022/11/24 06:09:37;;;;;;;;;;;10.50;75.00;;;;;;5070450;28;19947;-81
2022/11/24 06:12:04;;;;;;;;;;;10.50;74.90;;;;;;5070982;28;19920;-81
2022/11/24 06:14:30;;;;;;;;;;;10.50;75.00;;;;;;5062943;28;19927;-81
2022/11/24 06:16:56;;;;;;;;;;;10.50;74.90;;;;;;5074930;28;19917;-83
2022/11/24 06:19:21;;;;;;;;;;;10.50;74.90;;;;;;5073546;28;19916;-82
2022/11/24 06:21:47;;;;;;;;;;;10.50;75.00;;;;;;5070476;28;19916;-81
2022/11/24 06:24:13;;;;;;;;;;;10.50;75.00;;;;;;5070254;28;20402;-80
2022/11/24 06:26:39;;;;;;;;;;;10.60;75.00;;;;;;5069179;28;20007;-83
2022/11/24 06:29:05;;;;;;;;;;;10.60;75.00;;;;;;5040717;28;20012;-79
2022/11/24 06:31:30;;;;;;;;;;;10.60;75.00;;;;;;5055236;28;20360;-80
2022/11/24 06:33:56;;;;;;;;;;;10.60;75.00;;;;;;5056441;28;19971;-79
2022/11/24 06:36:22;;;;;;;;;;;10.60;75.00;;;;;;5050881;28;20323;-79
2022/11/24 06:38:47;;;;;;;;;;;10.50;75.00;;;;;;5032616;28;19912;-80
2022/11/24 06:41:13;;;;;;;;;;;10.60;75.00;;;;;;5048573;28;20023;-81
2022/11/24 06:43:39;;;;;;;;;;;10.60;75.00;;;;;;5046532;28;19965;-82
2022/11/24 06:46:05;;;;;;;;;;;10.60;75.10;;;;;;5048171;28;20327;-81
2022/11/24 06:48:31;;;;;;;;;;;10.60;75.00;;;;;;5047868;28;20385;-80
2022/11/24 06:51:00;;;;;;;;;;;10.60;75.00;;;;;;5051625;28;19939;-80
2022/11/24 06:53:28;;;;;;;;;;;10.60;75.00;;;;;;5049648;28;19947;-80
2022/11/24 06:55:56;;;;;;;;;;;10.60;75.00;;;;;;5049905;28;19924;-80
2022/11/24 06:58:22;;;;;;;;;;;10.60;75.00;;;;;;5047743;28;20404;-80
2022/11/24 07:00:47;;;;;;;;;;;10.60;75.00;;;;;;5050152;28;19916;-79
2022/11/24 07:03:15;;;;;;;;;;;10.70;75.10;;;;;;5035878;28;19924;-80
2022/11/24 07:05:41;;;;;;;;;;;10.60;75.00;;;;;;5032705;28;19913;-84
2022/11/24 07:08:06;;;;;;;;;;;10.70;75.10;;;;;;5033869;28;19974;-80
2022/11/24 07:10:32;;;;;;;;;;;10.70;75.10;;;;;;5050349;28;19928;-79
2022/11/24 07:12:58;;;;;;;;;;;10.70;75.10;;;;;;5049205;28;19974;-79
2022/11/24 07:15:23;;;;;;;;;;;10.70;75.10;;;;;;5061929;28;20146;-80
2022/11/24 07:17:49;;;;;;;;;;;10.70;75.10;;;;;;5049234;28;19917;-80
2022/11/24 07:20:15;;;;;;;;;;;10.70;75.00;;;;;;5051345;28;19940;-80
2022/11/24 07:22:41;;;;;;;;;;;10.70;75.10;;;;;;5017293;28;19993;-80
2022/11/24 07:25:08;;;;;;;;;;;10.70;75.10;;;;;;5051941;28;20276;-80
2022/11/24 07:27:34;;;;;;;;;;;10.70;75.10;;;;;;5051494;28;20573;-81
2022/11/24 07:30:00;;;;;;;;;;;10.70;75.10;;;;;;5052230;28;19920;-80
2022/11/24 07:32:26;;;;;;;;;;;10.70;75.10;;;;;;5053349;28;20557;-81
2022/11/24 07:34:52;;;;;;;;;;;10.70;75.10;;;;;;5063759;28;19923;-81
2022/11/24 07:37:17;;;;;;;;;;;10.70;75.10;;;;;;5076843;28;19920;-80
2022/11/24 07:39:43;;;;;;;;;;;10.70;75.10;;;;;;5056533;28;19920;-84
2022/11/24 07:42:10;;;;;;;;;;;10.70;75.10;;;;;;5080610;28;19917;-81
2022/11/24 07:44:36;;;;;;;;;;;10.70;75.10;;;;;;5062263;28;19964;-82
2022/11/24 07:47:01;;;;;;;;;;;10.70;75.10;;;;;;5070597;28;19916;-81
2022/11/24 07:49:27;;;;;;;;;;;10.70;75.10;;;;;;5064424;28;20365;-81
2022/11/24 07:51:53;;;;;;;;;;;10.70;75.00;;;;;;5092061;28;19923;-81
2022/11/24 07:54:18;;;;;;;;;;;10.70;75.70;;;;;;5066218;28;19917;-81
2022/11/24 07:56:46;;;;;;;;;;;10.70;75.00;;;;;;5078169;28;20010;-81
2022/11/24 07:59:12;;;;;;;;;;;10.80;75.10;;;;;;5070341;28;19915;-81
2022/11/24 08:01:38;;;;;;;;;;;10.70;75.10;;;;;;5090146;28;20326;-81
2022/11/24 08:04:04;;;;;;;;;;;10.80;75.10;;;;;;5053919;28;19920;-81
2022/11/24 08:06:29;;;;;;;;;;;10.80;75.10;;;;;;5057984;28;19922;-81
2022/11/24 08:08:55;;;;;;;;;;;10.80;75.10;;;;;;5064587;28;19930;-81
2022/11/24 08:11:21;;;;;;;;;;;10.80;75.10;;;;;;5083917;28;19924;-80
2022/11/24 08:13:46;;;;;;;;;;;10.80;75.10;;;;;;5061911;28;19919;-83
2022/11/24 08:16:14;;;;;;;;;;;10.80;75.10;;;;;;5075767;28;19915;-81
2022/11/24 08:18:40;;;;;;;;;;;10.80;75.10;;;;;;5079130;28;19916;-81
2022/11/24 08:21:06;;;;;;;;;;;10.80;75.10;;;;;;5064572;28;19912;-83
2022/11/24 08:23:31;;;;;;;;;;;10.80;75.10;;;;;;5091075;28;19951;-80
2022/11/24 08:26:03;;;;;;;;;;;10.80;75.10;;;;;;5077271;28;20612;-80
2022/11/24 08:28:29;;;;;;;;;;;10.80;75.10;;;;;;5080978;28;20361;-80
2022/11/24 08:31:04;;;;;;;;;;;10.80;75.10;;;;;;5058926;28;19928;-80
2022/11/24 08:33:30;;;;;;;;;;;10.80;75.10;;;;;;5097006;28;19924;-82
2022/11/24 08:36:00;;;;;;;;;;;10.80;75.10;;;;;;5062789;28;19912;-82
2022/11/24 08:38:26;;;;;;;;;;;10.80;75.10;;;;;;5075805;28;19912;-82
2022/11/24 08:40:52;;;;;;;;;;;10.80;75.10;;;;;;5080841;28;19923;-81
2022/11/24 08:43:17;;;;;;;;;;;10.90;75.10;;;;;;5093169;28;19941;-82
2022/11/24 08:45:43;;;;;;;;;;;10.90;75.10;;;;;;5058423;28;19916;-81
2022/11/24 08:48:09;;;;;;;;;;;10.90;75.10;;;;;;5081336;28;20054;-83
2022/11/24 08:50:36;;;;;;;;;;;10.80;75.00;;;;;;5064071;28;19982;-80
2022/11/24 08:53:01;;;;;;;;;;;10.90;75.10;;;;;;5093205;28;19988;-79
2022/11/24 08:55:27;;;;;;;;;;;10.90;75.10;;;;;;5065622;28;19971;-81
2022/11/24 08:57:53;;;;;;;;;;;10.90;75.10;;;;;;5074551;28;20368;-81
2022/11/24 09:00:21;;;;;;;;;;;10.90;75.00;;;;;;5061659;28;19996;-80
2022/11/24 09:02:56;;;;;;;;;;;10.90;75.00;;;;;;5061206;28;19916;-81
2022/11/24 09:05:22;;;;;;;;;;;10.90;75.10;;;;;;5073087;28;20065;-81
2022/11/24 09:07:47;;;;;;;;;;;10.90;75.00;;;;;;5062570;28;20014;-84
2022/11/24 09:10:13;;;;;;;;;;;10.90;75.00;;;;;;5076598;28;19931;-81
2022/11/24 09:12:38;;;;;;;;;;;10.90;75.00;;;;;;5062341;28;19917;-81
2022/11/24 09:15:04;;;;;;;;;;;10.90;75.00;;;;;;5046300;28;20023;-80
2022/11/24 09:17:30;;;;;;;;;;;11.00;75.10;;;;;;5076189;28;20288;-80
2022/11/24 09:19:57;;;;;;;;;;;11.00;75.10;;;;;;5059892;28;19923;-81
2022/11/24 09:22:22;;;;;;;;;;;11.00;75.10;;;;;;5078738;28;20296;-80
2022/11/24 09:24:48;;;;;;;;;;;11.00;75.10;;;;;;5057902;28;20268;-80
2022/11/24 09:27:14;;;;;;;;;;;11.00;75.10;;;;;;5061538;28;20443;-80
2022/11/24 09:29:39;;;;;;;;;;;11.00;75.00;;;;;;5076836;28;19931;-79
2022/11/24 09:32:05;;;;;;;;;;;11.00;75.00;;;;;;5056843;28;19920;-81
2022/11/24 09:34:31;;;;;;;;;;;11.00;75.00;;;;;;5077446;28;20265;-80
2022/11/24 09:36:57;;;;;;;;;;;11.00;75.00;;;;;;5091249;28;19917;-80
2022/11/24 09:39:23;;;;;;;;;;;11.00;75.00;;;;;;5059151;28;19974;-80
2022/11/24 09:42:08;;;;;;;;;;;11.10;75.10;;;;;;5062949;28;20288;-80
2022/11/24 09:44:58;;;;;;;;;;;11.10;75.10;;;;;;5096088;28;19912;-80
2022/11/24 09:47:27;;;;;;;;;;;11.10;75.10;;;;;;5070077;28;19916;-81
2022/11/24 09:50:03;;;;;;;;;;;11.10;75.20;;;;;;5081162;28;19923;-85
2022/11/24 09:52:48;;;;;;;;;;;11.10;75.10;;;;;;5093421;28;19916;-81
2022/11/24 09:55:21;;;;;;;;;;;11.10;75.10;;;;;;5058312;28;19944;-80
2022/11/24 09:57:50;;;;;;;;;;;11.10;75.10;;;;;;5076176;28;19947;-80
2022/11/24 10:00:16;;;;;;;;;;;11.10;75.10;;;;;;5057299;28;20398;-80
2022/11/24 10:02:44;;;;;;;;;;;11.10;75.10;;;;;;5063667;28;20276;-80
2022/11/24 10:05:11;;;;;;;;;;;11.20;75.10;;;;;;5083431;28;19973;-80
2022/11/24 10:07:40;;;;;;;;;;;11.20;75.10;;;;;;5064325;28;19994;-81
2022/11/24 10:10:12;;;;;;;;;;;11.20;75.10;;;;;;5066367;28;19920;-83
2022/11/24 10:12:56;;;;;;;;;;;11.20;75.10;;;;;;5074566;28;19916;-82
2022/11/24 10:15:42;;;;;;;;;;;11.20;75.10;;;;;;5064443;28;19982;-80
2022/11/24 10:18:20;;;;;;;;;;;11.20;75.10;;;;;;5064342;28;20344;-82
2022/11/24 10:20:48;;;;;;;;;;;11.20;75.10;;;;;;5074549;28;19972;-82
2022/11/24 10:23:17;;;;;;;;;;;11.20;75.10;;;;;;5074993;28;19912;-80
2022/11/24 10:25:48;;;;;;;;;;;11.20;75.10;;;;;;5090785;28;19966;-80
2022/11/24 10:28:15;;;;;;;;;;;11.30;75.10;;;;;;5074771;28;19916;-82
2022/11/24 10:30:41;;;;;;;;;;;11.20;75.10;;;;;;5056382;28;20422;-80
2022/11/24 10:33:11;;;;;;;;;;;11.30;75.10;;;;;;5076602;28;19927;-80
2022/11/24 10:35:44;;;;;;;;;;;11.30;75.10;;;;;;5091010;28;19912;-81
2022/11/24 10:38:29;;;;;;;;;;;11.30;75.10;;;;;;5079026;28;19919;-81
2022/11/24 10:41:04;;;;;;;;;;;11.30;75.10;;;;;;5074963;28;19924;-80
2022/11/24 10:43:29;;;;;;;;;;;11.30;75.10;;;;;;5087536;28;19920;-81
2022/11/24 10:46:04;;;;;;;;;;;11.30;75.10;;;;;;5065261;28;19923;-83
2022/11/24 10:48:36;;;;;;;;;;;11.30;75.10;;;;;;5085146;28;19916;-82
2022/11/24 10:51:15;;;;;;;;;;;11.30;75.10;;;;;;5093586;28;20371;-81
2022/11/24 10:53:41;;;;;;;;;;;11.30;75.10;;;;;;5063688;28;20002;-81
2022/11/24 10:56:07;;;;;;;;;;;11.30;75.10;;;;;;5091167;28;20342;-81
2022/11/24 10:58:36;;;;;;;;;;;11.30;75.10;;;;;;5075914;28;19923;-80
2022/11/24 11:01:11;;;;;;;;;;;11.40;75.20;;;;;;5060318;28;20336;-82
2022/11/24 11:03:45;;;;;;;;;;;11.30;75.10;;;;;;5089421;28;19912;-82
2022/11/24 11:06:12;;;;;;;;;;;11.40;75.20;;;;;;5088701;28;19919;-81
2022/11/24 11:08:38;;;;;;;;;;;11.40;75.20;;;;;;5068740;28;19973;-81
2022/11/24 11:11:16;;;;;;;;;;;11.40;75.20;;;;;;5059594;28;19924;-81
2022/11/24 11:13:54;;;;;;;;;;;11.40;75.20;;;;;;5056813;28;19918;-81
2022/11/24 11:16:22;;;;;;;;;;;11.40;75.20;;;;;;5089972;28;19965;-81
2022/11/24 11:18:48;;;;;;;;;;;11.50;75.30;;;;;;5080865;28;19911;-81
2022/11/24 11:21:25;;;;;;;;;;;11.50;75.30;;;;;;5081828;28;20277;-83
2022/11/24 11:23:51;;;;;;;;;;;11.50;75.30;;;;;;5069849;28;20395;-81
2022/11/24 11:26:20;;;;;;;;;;;11.50;75.30;;;;;;5067610;28;19967;-82
2022/11/24 11:29:06;;;;;;;;;;;11.50;75.30;;;;;;5053446;28;20425;-82
2022/11/24 11:31:32;;;;;;;;;;;11.50;75.40;;;;;;5065498;28;19916;-82
2022/11/24 11:33:59;;;;;;;;;;;11.50;75.40;;;;;;5056330;28;19925;-82
2022/11/24 11:36:25;;;;;;;;;;;11.50;75.30;;;;;;5033995;28;19970;-81
2022/11/24 11:38:51;;;;;;;;;;;11.50;75.30;;;;;;5036190;28;19913;-81
2022/11/24 11:41:37;;;;;;;;;;;11.50;75.30;;;;;;5032963;28;19917;-82
2022/11/24 11:44:22;;;;;;;;;;;11.60;75.40;;;;;;5051326;28;19913;-81
2022/11/24 11:46:47;;;;;;;;;;;11.50;75.40;;;;;;5060500;28;20288;-82
2022/11/24 11:49:13;;;;;;;;;;;11.60;75.40;;;;;;5066930;28;19928;-80
2022/11/24 11:51:41;;;;;;;;;;;11.60;75.40;;;;;;5046316;28;19959;-81
2022/11/24 11:54:32;;;;;;;;;;;11.60;75.40;;;;;;5061041;28;20015;-82
2022/11/24 11:56:57;;;;;;;;;;;11.60;75.40;;;;;;5036574;28;20396;-82
2022/11/24 11:59:26;;;;;;;;;;;11.60;75.40;;;;;;5054354;28;19952;-81
2022/11/24 12:02:10;;;;;;;;;;;11.60;75.40;;;;;;5041652;28;19913;-81
2022/11/24 12:04:43;;;;;;;;;;;11.60;75.40;;;;;;5048886;28;19927;-82
2022/11/24 12:07:31;;;;;;;;;;;11.70;75.50;;;;;;5052089;28;20365;-80
2022/11/24 12:10:15;;;;;;;;;;;11.70;75.50;;;;;;5052985;28;19916;-81
2022/11/24 12:12:53;;;;;;;;;;;11.70;75.50;;;;;;5054389;28;19913;-80
2022/11/24 12:15:18;;;;;;;;;;;11.70;75.50;;;;;;5038744;28;20027;-80
2022/11/24 12:17:44;;;;;;;;;;;11.70;75.40;;;;;;5054182;28;20401;-81
2022/11/24 12:20:15;;;;;;;;;;;11.70;75.50;;;;;;5050397;28;20369;-81
2022/11/24 12:22:45;;;;;;;;;;;11.80;75.50;;;;;;5047638;28;19912;-82
2022/11/24 12:25:24;;;;;;;;;;;11.80;75.50;;;;;;5053947;28;19916;-81
2022/11/24 12:28:13;;;;;;;;;;;11.80;75.50;;;;;;5048582;28;19917;-80
2022/11/24 12:31:11;;;;;;;;;;;11.80;75.40;;;;;;5052545;28;20301;-80
2022/11/24 12:33:37;;;;;;;;;;;11.90;75.50;;;;;;5028161;28;19934;-80
2022/11/24 12:36:15;;;;;;;;;;;11.90;75.50;;;;;;5061064;28;19917;-81
2022/11/24 12:38:59;;;;;;;;;;;11.90;75.50;;;;;;5062637;28;19920;-82
2022/11/24 12:41:34;;;;;;;;;;;11.90;75.50;;;;;;5056401;28;20353;-83
2022/11/24 12:44:00;;;;;;;;;;;12.00;75.50;;;;;;5039573;28;19959;-83
2022/11/24 12:46:45;;;;;;;;;;;11.90;75.50;;;;;;5038096;28;19927;-83
2022/11/24 12:49:19;;;;;;;;;;;12.00;75.60;;;;;;5053748;28;19921;-80
2022/11/24 12:51:47;;;;;;;;;;;12.00;75.60;;;;;;5035967;28;20239;-80
2022/11/24 12:54:16;;;;;;;;;;;12.00;75.50;;;;;;5051376;28;20353;-80
2022/11/24 12:56:47;;;;;;;;;;;12.00;75.50;;;;;;5036287;28;19967;-78
2022/11/24 12:59:37;;;;;;;;;;;12.00;75.50;;;;;;5055594;28;20015;-79
2022/11/24 13:02:18;;;;;;;;;;;12.10;75.60;;;;;;5051219;28;20439;-79
2022/11/24 13:04:48;;;;;;;;;;;12.10;75.60;;;;;;5050786;28;20346;-78
2022/11/24 13:07:17;;;;;;;;;;;12.10;75.60;;;;;;5053202;28;19922;-79
2022/11/24 13:10:11;;;;;;;;;;;12.20;76.20;;;;;;5053250;28;19917;-80
2022/11/24 13:12:51;;;;;;;;;;;12.20;75.50;;;;;;5030554;28;19916;-80
2022/11/24 13:15:17;;;;;;;;;;;12.20;75.60;;;;;;5037738;28;20366;-80
2022/11/24 13:17:42;;;;;;;;;;;12.20;75.50;;;;;;5040246;28;19924;-83
2022/11/24 13:20:17;;;;;;;;;;;12.20;75.60;;;;;;5035571;28;20327;-83
2022/11/24 13:22:49;;;;;;;;;;;12.20;75.60;;;;;;5043845;28;19913;-80
2022/11/24 13:25:17;;;;;;;;;;;12.20;75.60;;;;;;5059921;28;19917;-81
2022/11/24 13:27:44;;;;;;;;;;;12.30;75.70;;;;;;5052341;28;19932;-83
2022/11/24 13:30:45;;;;;;;;;;;12.30;75.70;;;;;;5057356;28;20296;-80
2022/11/24 13:33:11;;;;;;;;;;;12.30;75.70;;;;;;4990584;28;19945;-80
2022/11/24 13:36:00;;;;;;;;;;;12.40;75.70;;;;;;5042622;28;20003;-80
2022/11/24 13:38:43;;;;;;;;;;;12.40;75.70;;;;;;5069570;28;19977;-81
2022/11/24 13:41:28;;;;;;;;;;;12.40;75.70;;;;;;5072413;28;19912;-82
2022/11/24 13:44:12;;;;;;;;;;;12.40;75.70;;;;;;5060945;28;19920;-80
2022/11/24 13:46:57;;;;;;;;;;;12.40;75.70;;;;;;5059859;28;19912;-80
2022/11/24 13:49:23;;;;;;;;;;;12.40;75.70;;;;;;5065342;28;19917;-80
2022/11/24 13:51:56;;;;;;;;;;;12.40;75.70;;;;;;5075459;28;20353;-81
2022/11/24 13:54:23;;;;;;;;;;;12.50;75.80;;;;;;5077115;28;19912;-80
2022/11/24 13:56:49;;;;;;;;;;;12.50;75.70;;;;;;5051822;28;19955;-81
2022/11/24 13:59:17;;;;;;;;;;;12.50;75.70;;;;;;5070173;28;19959;-82
2022/11/24 14:01:45;;;;;;;;;;;12.50;75.70;;;;;;5059485;28;20351;-82
2022/11/24 14:04:18;;;;;;;;;;;12.50;75.70;;;;;;5070711;28;19912;-80
2022/11/24 14:06:53;;;;;;;;;;;12.50;75.70;;;;;;5055233;28;19912;-80
2022/11/24 14:09:22;;;;;;;;;;;12.50;75.70;;;;;;5074221;28;19917;-83
2022/11/24 14:12:06;;;;;;;;;;;12.60;75.70;;;;;;5046932;28;20369;-82
2022/11/24 14:14:32;;;;;;;;;;;12.50;75.60;;;;;;5081316;28;20377;-82
2022/11/24 14:17:26;;;;;;;;;;;12.60;75.60;;;;;;5071754;28;19919;-81
2022/11/24 14:19:53;;;;;;;;;;;12.60;75.70;;;;;;5067268;28;19913;-81
2022/11/24 14:22:21;;;;;;;;;;;12.60;75.60;;;;;;5073697;28;20395;-81
2022/11/24 14:24:51;;;;;;;;;;;12.70;75.70;;;;;;5054678;28;19919;-81
2022/11/24 14:27:18;;;;;;;;;;;12.60;75.60;;;;;;5071711;28;19969;-81